Archival Weather

Chicago O'Hare International

Chicago, Illinois (KORD)

Report from: Saturday, March 18, 2023 5:06 AM CDT
Current time: Saturday, March 2, 2024 4:20 AM CST

Current weather – Weather history – Daily summaries
Weather forecast

Present weatherLight snow, mist
Temperature-8.9°C (16.0°F)
Wind chill-17.2°C (1.1°F)
Dew point-15.0°C (5.0°F)
Winds 13 kts (6.7 m/s, 15 mph) West (270°)
Wind gusts 22 kts (11.3 m/s, 25.3 mph)
Visibility4 mi. (6.4 km)
Clouds Ceiling: Broken clouds 3,000 ft. (914 m)
Overcast 3,500 ft. (1,067 m)
Altimeter29.90 in.Hg (1013 mB)
PrecipitiationTrace
Precip. events Snow began 10:01 AM
Relative humidity61 %
Density altitude-2,921 ft. (-890 m)
Remarks Automated weather observing station with precipitation discriminator
Flight conditions Marginal Visual Meteorological Conditions
Raw dataKORD 181006Z 27013G22KT 4SM -SN BR BKN030 OVC035 M09/M15 A2990 RMK AO2 SNB01 P0000 T10891150
An error has occurred. This application may no longer respond until reloaded. Reload 🗙